createdAt,value
2023-01-22T00:01:24.628Z,1.80
2023-01-22T00:03:53.876Z,1.70
2023-01-22T00:06:23.549Z,1.70
2023-01-22T00:08:52.506Z,1.70
2023-01-22T00:11:22.256Z,1.70
2023-01-22T00:13:50.928Z,1.70
2023-01-22T00:16:20.382Z,1.60
2023-01-22T00:18:48.735Z,1.60
2023-01-22T00:21:16.877Z,1.60
2023-01-22T00:23:45.228Z,1.60
2023-01-22T00:26:15.475Z,1.60
2023-01-22T00:28:47.506Z,1.60
2023-01-22T00:31:16.943Z,1.60
2023-01-22T00:33:45.992Z,1.60
2023-01-22T00:36:16.952Z,1.60
2023-01-22T00:38:45.801Z,1.60
2023-01-22T00:41:14.953Z,1.60
2023-01-22T00:43:43.926Z,1.60
2023-01-22T00:46:15.518Z,1.60
2023-01-22T00:48:45.326Z,1.60
2023-01-22T00:51:16.313Z,1.60
2023-01-22T00:53:45.144Z,1.60
2023-01-22T00:56:14.848Z,1.60
2023-01-22T00:58:45.944Z,1.50
2023-01-22T01:01:16.617Z,1.50
2023-01-22T01:03:45.017Z,1.50
2023-01-22T01:06:17.719Z,1.50
2023-01-22T01:08:48.427Z,1.50
2023-01-22T01:11:18.802Z,1.50
2023-01-22T01:13:47.065Z,1.50
2023-01-22T01:16:19.592Z,1.40
2023-01-22T01:18:48.785Z,1.50
2023-01-22T01:21:19.255Z,1.50
2023-01-22T01:23:48.097Z,1.40
2023-01-22T01:26:17.752Z,1.40
2023-01-22T01:28:46.533Z,1.40
2023-01-22T01:31:17.664Z,1.50
2023-01-22T01:33:46.729Z,1.40
2023-01-22T01:36:18.262Z,1.40
2023-01-22T01:38:48.557Z,1.40
2023-01-22T01:41:20.426Z,1.40
2023-01-22T01:44:06.758Z,1.40
2023-01-22T01:46:38.121Z,1.50
2023-01-22T01:49:17.279Z,1.50
2023-01-22T01:51:45.610Z,1.50
2023-01-22T01:54:15.539Z,1.50
2023-01-22T01:56:47.486Z,1.40
2023-01-22T01:59:18.221Z,1.40
2023-01-22T05:04:48.262Z,1.60
2023-01-22T05:07:16.633Z,1.60
2023-01-22T05:09:44.825Z,1.60
2023-01-22T05:12:12.961Z,1.60
2023-01-22T05:14:43.181Z,1.60
2023-01-22T05:17:11.503Z,1.60
2023-01-22T05:19:40.293Z,1.60
2023-01-22T05:22:15.003Z,1.60
2023-01-22T05:24:43.302Z,1.60
2023-01-22T05:27:12.535Z,1.60
2023-01-22T05:29:52.069Z,1.60
2023-01-22T05:32:40.404Z,1.50
2023-01-22T05:35:09.357Z,1.50
2023-01-22T05:37:40.768Z,1.50
2023-01-22T05:40:11.013Z,1.50
2023-01-22T05:42:39.161Z,1.40
2023-01-22T05:45:10.189Z,1.40
2023-01-22T05:47:45.714Z,1.40
2023-01-22T05:50:32.623Z,1.40
2023-01-22T05:53:11.396Z,1.30
2023-01-22T05:55:41.636Z,1.30
2023-01-22T05:58:09.912Z,1.40
2023-01-22T06:00:38.193Z,1.40
2023-01-22T06:03:10.411Z,1.30
2023-01-22T06:05:46.838Z,1.30
2023-01-22T06:08:18.387Z,1.30
2023-01-22T06:10:51.846Z,1.40
2023-01-22T06:13:20.592Z,1.40
2023-01-22T06:15:53.716Z,1.50
2023-01-22T06:18:40.452Z,1.30
2023-01-22T06:21:10.281Z,1.40
2023-01-22T06:23:40.377Z,1.40
2023-01-22T06:26:09.461Z,1.40
2023-01-22T06:28:37.560Z,1.30
2023-01-22T06:31:07.687Z,1.40
2023-01-22T06:33:39.796Z,1.40
2023-01-22T06:36:08.761Z,1.40
2023-01-22T06:38:38.363Z,1.40
2023-01-22T06:41:10.881Z,1.40
2023-01-22T06:43:39.223Z,1.40
2023-01-22T06:46:07.412Z,1.50
2023-01-22T06:49:01.579Z,1.50
2023-01-22T06:51:32.031Z,1.50
2023-01-22T06:54:00.510Z,1.50
2023-01-22T06:56:30.427Z,1.50
2023-01-22T06:59:01.036Z,1.50
2023-01-22T07:01:29.312Z,1.50
2023-01-22T07:03:58.103Z,1.50
2023-01-22T07:06:26.307Z,1.50
2023-01-22T07:08:56.372Z,1.50
2023-01-22T07:11:24.505Z,1.40
2023-01-22T07:13:54.041Z,1.50
2023-01-22T07:16:22.722Z,1.50
2023-01-22T07:18:50.977Z,1.50
2023-01-22T07:21:19.073Z,1.60
2023-01-22T07:23:47.216Z,1.60
2023-01-22T07:26:17.193Z,1.60
2023-01-22T07:28:45.414Z,1.60
2023-01-22T07:31:15.583Z,1.50
2023-01-22T07:33:43.967Z,1.50
2023-01-22T07:36:12.008Z,1.60
2023-01-22T07:38:40.139Z,1.50
2023-01-22T07:41:17.124Z,1.60
2023-01-22T07:43:53.205Z,1.60
2023-01-22T07:46:22.959Z,1.60
2023-01-22T07:48:51.262Z,1.60
2023-01-22T07:51:19.936Z,1.60
2023-01-22T07:53:48.148Z,1.60
2023-01-22T07:56:18.035Z,1.60
2023-01-22T07:58:46.277Z,1.70
2023-01-22T08:01:14.589Z,1.70
2023-01-22T08:03:45.154Z,1.80
2023-01-22T08:06:17.025Z,1.70
2023-01-22T08:08:45.413Z,1.70
2023-01-22T08:11:14.281Z,1.80
2023-01-22T08:13:42.654Z,1.70
2023-01-22T08:16:10.815Z,1.80
2023-01-22T08:18:41.188Z,1.80
2023-01-22T08:21:10.619Z,1.80
2023-01-22T08:23:38.775Z,1.80
2023-01-22T08:26:06.948Z,1.80
2023-01-22T08:28:35.056Z,1.70
2023-01-22T08:31:04.589Z,1.80
2023-01-22T08:33:34.192Z,1.80
2023-01-22T08:36:02.428Z,1.80
2023-01-22T08:38:31.932Z,1.80
2023-01-22T08:41:00.733Z,1.70
2023-01-22T08:43:29.900Z,1.70
2023-01-22T08:45:58.195Z,1.70
2023-01-22T08:48:26.475Z,1.70
2023-01-22T08:50:55.136Z,1.80
2023-01-22T08:53:23.315Z,1.80
2023-01-22T08:55:53.138Z,1.80
2023-01-22T08:58:22.143Z,1.80
2023-01-22T09:00:53.142Z,1.70
2023-01-22T09:03:21.575Z,1.70
2023-01-22T09:05:50.871Z,1.70
2023-01-22T09:08:19.776Z,1.80
2023-01-22T09:10:48.537Z,1.80
2023-01-22T09:13:18.022Z,1.80
2023-01-22T09:15:46.497Z,1.80
2023-01-22T09:18:14.667Z,1.80
2023-01-22T09:20:43.155Z,1.80
2023-01-22T09:23:11.257Z,1.80
2023-01-22T09:25:41.495Z,1.80
2023-01-22T09:28:12.169Z,1.70
2023-01-22T09:30:42.795Z,1.80
2023-01-22T09:33:11.152Z,1.80
2023-01-22T09:35:42.164Z,1.70
2023-01-22T09:38:14.730Z,1.70
2023-01-22T09:40:46.566Z,1.80
2023-01-22T09:43:26.762Z,1.80
2023-01-22T09:46:00.302Z,1.80
2023-01-22T09:48:34.856Z,1.90
2023-01-22T09:51:03.523Z,1.80
2023-01-22T09:53:32.167Z,1.80
2023-01-22T09:56:00.952Z,1.90
2023-01-22T09:58:29.284Z,1.90
2023-01-22T10:01:02.710Z,1.90
2023-01-22T10:03:34.900Z,1.90
2023-01-22T10:06:08.127Z,1.80
2023-01-22T10:08:42.189Z,1.80
2023-01-22T10:11:10.906Z,1.80
2023-01-22T10:13:40.726Z,1.80
2023-01-22T10:16:12.541Z,1.90
2023-01-22T10:18:44.764Z,1.90
2023-01-22T10:21:19.684Z,2.00
2023-01-22T10:23:48.851Z,1.80
2023-01-22T10:26:19.079Z,1.80
2023-01-22T10:28:49.712Z,1.80
2023-01-22T10:31:38.214Z,1.80
2023-01-22T10:34:14.315Z,1.80
2023-01-22T10:36:48.512Z,1.70
2023-01-22T10:39:18.358Z,1.70
2023-01-22T10:41:48.510Z,1.70
2023-01-22T10:44:22.979Z,1.80
2023-01-22T10:46:54.683Z,1.80
2023-01-22T10:49:26.003Z,1.80
2023-01-22T10:52:01.892Z,1.90
2023-01-22T10:54:33.416Z,1.80
2023-01-22T10:57:07.422Z,1.80
2023-01-22T10:59:36.102Z,1.80
2023-01-22T11:02:16.966Z,1.90
2023-01-22T11:04:45.227Z,1.90
2023-01-22T11:07:18.819Z,2.00
2023-01-22T11:09:51.348Z,2.00
2023-01-22T11:12:24.804Z,1.90
2023-01-22T11:15:01.689Z,2.00
2023-01-22T11:17:37.731Z,2.00
2023-01-22T11:20:13.911Z,2.00
2023-01-22T11:22:47.351Z,2.00
2023-01-22T11:25:15.739Z,2.20
2023-01-22T11:28:03.059Z,2.10
2023-01-22T11:30:49.808Z,2.00
2023-01-22T11:33:33.834Z,2.10
2023-01-22T11:36:09.855Z,2.20
2023-01-22T11:38:47.792Z,2.10
2023-01-22T11:41:30.219Z,2.00
2023-01-22T11:44:22.998Z,2.00
2023-01-22T11:47:05.855Z,2.10
2023-01-22T11:49:47.381Z,2.00
2023-01-22T11:52:31.021Z,2.10
2023-01-22T11:55:18.281Z,2.00
2023-01-22T11:57:56.324Z,2.00
2023-01-22T12:00:42.908Z,2.00
2023-01-22T12:03:44.713Z,2.10
2023-01-22T12:06:28.797Z,2.20
2023-01-22T12:09:09.098Z,2.30
2023-01-22T12:11:55.010Z,2.30
2023-01-22T12:14:47.219Z,2.20
2023-01-22T12:17:31.679Z,2.10
2023-01-22T12:20:35.259Z,2.10
2023-01-22T12:23:09.983Z,2.20
2023-01-22T12:25:45.037Z,2.30
2023-01-22T12:28:19.646Z,2.30
2023-01-22T12:30:55.072Z,2.10
2023-01-22T12:33:28.271Z,2.10
2023-01-22T12:36:01.447Z,2.10
2023-01-22T12:38:43.425Z,2.20
2023-01-22T12:41:28.345Z,2.30
2023-01-22T12:43:59.107Z,2.20
2023-01-22T12:46:37.407Z,2.20
2023-01-22T12:49:08.114Z,2.30
2023-01-22T12:51:40.004Z,2.30
2023-01-22T12:54:24.220Z,2.20
2023-01-22T12:56:56.593Z,2.30
2023-01-22T12:59:32.972Z,2.40
2023-01-22T13:02:03.012Z,2.30
2023-01-22T13:04:31.978Z,2.20
2023-01-22T13:07:19.457Z,2.20
2023-01-22T13:09:49.642Z,2.00
2023-01-22T13:12:27.869Z,2.00
2023-01-22T13:14:59.306Z,2.00
2023-01-22T13:17:30.593Z,2.00
2023-01-22T13:20:00.716Z,2.00
2023-01-22T13:22:29.436Z,1.80
2023-01-22T13:25:00.346Z,1.90
2023-01-22T13:27:31.073Z,1.90
2023-01-22T13:30:09.321Z,1.90
2023-01-22T13:32:37.547Z,1.80
2023-01-22T13:35:06.934Z,1.90
2023-01-22T13:37:35.865Z,1.90
2023-01-22T13:40:15.192Z,2.00
2023-01-22T13:42:47.043Z,2.00
2023-01-22T13:45:20.381Z,1.80
2023-01-22T13:47:48.657Z,1.90
2023-01-22T13:50:21.565Z,1.90
2023-01-22T13:52:50.793Z,1.90
2023-01-22T13:55:22.490Z,2.00
2023-01-22T13:57:53.236Z,2.00
2023-01-22T14:00:30.790Z,1.90
2023-01-22T14:03:00.107Z,1.80
2023-01-22T14:05:31.028Z,1.80
2023-01-22T14:08:07.332Z,1.90
2023-01-22T14:10:37.762Z,1.90
2023-01-22T14:13:13.920Z,1.90
2023-01-22T14:15:42.815Z,1.90
2023-01-22T14:18:12.195Z,2.00
2023-01-22T14:20:43.200Z,2.00
2023-01-22T14:23:13.756Z,1.90
2023-01-22T14:25:47.364Z,2.00
2023-01-22T14:28:16.234Z,2.00
2023-01-22T14:30:44.590Z,1.80
2023-01-22T14:33:13.769Z,1.80
2023-01-22T14:35:41.947Z,1.90
2023-01-22T14:38:10.110Z,1.90
2023-01-22T14:40:38.259Z,1.90
2023-01-22T14:43:08.057Z,1.80
2023-01-22T14:45:36.240Z,1.80
2023-01-22T14:48:05.075Z,1.80
